sensor_id;sensor_type;location;lat;lon;timestamp;temperature;humidity
16966;DHT22;8599;47.852;12.070;2023-05-23T00:01:07;17.70;99.90
16966;DHT22;8599;47.852;12.070;2023-05-23T00:03:34;17.70;99.90
16966;DHT22;8599;47.852;12.070;2023-05-23T00:06:01;17.70;99.90
16966;DHT22;8599;47.852;12.070;2023-05-23T00:08:29;17.70;99.90
16966;DHT22;8599;47.852;12.070;2023-05-23T00:10:55;17.70;99.90
16966;DHT22;8599;47.852;12.070;2023-05-23T00:13:22;17.60;99.90
16966;DHT22;8599;47.852;12.070;2023-05-23T00:15:50;17.30;99.90
16966;DHT22;8599;47.852;12.070;2023-05-23T00:18:17;17.20;99.90
16966;DHT22;8599;47.852;12.070;2023-05-23T00:20:44;17.20;99.90
16966;DHT22;8599;47.852;12.070;2023-05-23T00:23:11;17.20;99.90
16966;DHT22;8599;47.852;12.070;2023-05-23T00:25:44;17.30;99.90
16966;DHT22;8599;47.852;12.070;2023-05-23T00:28:13;17.30;99.90
16966;DHT22;8599;47.852;12.070;2023-05-23T00:30:40;17.30;99.90
16966;DHT22;8599;47.852;12.070;2023-05-23T00:33:08;17.30;99.90
16966;DHT22;8599;47.852;12.070;2023-05-23T00:35:38;17.30;99.90
16966;DHT22;8599;47.852;12.070;2023-05-23T00:38:05;17.30;99.90
16966;DHT22;8599;47.852;12.070;2023-05-23T00:40:32;17.30;99.90
16966;DHT22;8599;47.852;12.070;2023-05-23T00:42:59;17.30;99.90
16966;DHT22;8599;47.852;12.070;2023-05-23T00:45:26;17.10;99.90
16966;DHT22;8599;47.852;12.070;2023-05-23T00:47:53;16.80;99.90
16966;DHT22;8599;47.852;12.070;2023-05-23T00:50:22;16.70;99.90
16966;DHT22;8599;47.852;12.070;2023-05-23T00:52:49;16.70;99.90
16966;DHT22;8599;47.852;12.070;2023-05-23T00:55:16;16.50;99.90
16966;DHT22;8599;47.852;12.070;2023-05-23T00:57:43;16.40;99.90
16966;DHT22;8599;47.852;12.070;2023-05-23T01:00:11;16.40;99.90
16966;DHT22;8599;47.852;12.070;2023-05-23T01:02:41;16.50;99.90
16966;DHT22;8599;47.852;12.070;2023-05-23T01:05:09;16.60;99.90
16966;DHT22;8599;47.852;12.070;2023-05-23T01:07:40;16.70;99.90
16966;DHT22;8599;47.852;12.070;2023-05-23T01:10:08;16.80;99.90
16966;DHT22;8599;47.852;12.070;2023-05-23T01:12:43;16.90;99.90
16966;DHT22;8599;47.852;12.070;2023-05-23T01:15:13;16.80;99.90
16966;DHT22;8599;47.852;12.070;2023-05-23T01:17:47;16.70;99.90
16966;DHT22;8599;47.852;12.070;2023-05-23T01:20:20;16.70;99.90
16966;DHT22;8599;47.852;12.070;2023-05-23T01:23:12;16.70;99.90
16966;DHT22;8599;47.852;12.070;2023-05-23T01:25:48;16.70;99.90
16966;DHT22;8599;47.852;12.070;2023-05-23T01:28:27;16.70;99.90
16966;DHT22;8599;47.852;12.070;2023-05-23T01:30:57;16.70;99.90
16966;DHT22;8599;47.852;12.070;2023-05-23T01:33:26;16.70;99.90
16966;DHT22;8599;47.852;12.070;2023-05-23T01:35:55;16.60;99.90
16966;DHT22;8599;47.852;12.070;2023-05-23T01:38:23;16.70;99.90
16966;DHT22;8599;47.852;12.070;2023-05-23T01:40:50;16.60;99.90
16966;DHT22;8599;47.852;12.070;2023-05-23T01:43:17;16.70;99.90
16966;DHT22;8599;47.852;12.070;2023-05-23T01:45:45;16.60;99.90
16966;DHT22;8599;47.852;12.070;2023-05-23T01:48:14;16.60;99.90
16966;DHT22;8599;47.852;12.070;2023-05-23T01:50:41;16.50;99.90
16966;DHT22;8599;47.852;12.070;2023-05-23T01:53:11;16.50;99.90
16966;DHT22;8599;47.852;12.070;2023-05-23T01:55:39;16.60;99.90
16966;DHT22;8599;47.852;12.070;2023-05-23T01:58:07;16.60;99.90
16966;DHT22;8599;47.852;12.070;2023-05-23T02:00:34;16.60;99.90
16966;DHT22;8599;47.852;12.070;2023-05-23T02:03:03;16.60;99.90
16966;DHT22;8599;47.852;12.070;2023-05-23T02:05:30;16.50;99.90
16966;DHT22;8599;47.852;12.070;2023-05-23T02:07:57;16.50;99.90
16966;DHT22;8599;47.852;12.070;2023-05-23T02:10:24;16.40;99.90
16966;DHT22;8599;47.852;12.070;2023-05-23T02:12:50;16.40;99.90
16966;DHT22;8599;47.852;12.070;2023-05-23T02:15:17;16.40;99.90
16966;DHT22;8599;47.852;12.070;2023-05-23T02:17:44;16.50;99.90
16966;DHT22;8599;47.852;12.070;2023-05-23T02:20:14;16.50;99.90
16966;DHT22;8599;47.852;12.070;2023-05-23T02:22:43;16.60;99.90
16966;DHT22;8599;47.852;12.070;2023-05-23T02:25:10;16.60;99.90
16966;DHT22;8599;47.852;12.070;2023-05-23T02:27:37;16.60;99.90
16966;DHT22;8599;47.852;12.070;2023-05-23T02:30:04;16.60;99.90
16966;DHT22;8599;47.852;12.070;2023-05-23T02:32:32;16.60;99.90
16966;DHT22;8599;47.852;12.070;2023-05-23T02:34:59;16.60;99.90
16966;DHT22;8599;47.852;12.070;2023-05-23T02:37:28;16.60;99.90
16966;DHT22;8599;47.852;12.070;2023-05-23T02:39:55;16.70;99.90
16966;DHT22;8599;47.852;12.070;2023-05-23T02:42:22;16.70;99.90
16966;DHT22;8599;47.852;12.070;2023-05-23T02:44:48;16.70;99.90
16966;DHT22;8599;47.852;12.070;2023-05-23T02:47:15;16.70;99.90
16966;DHT22;8599;47.852;12.070;2023-05-23T02:49:42;16.80;99.90
16966;DHT22;8599;47.852;12.070;2023-05-23T02:52:09;16.80;99.90
16966;DHT22;8599;47.852;12.070;2023-05-23T02:54:37;16.80;99.90
16966;DHT22;8599;47.852;12.070;2023-05-23T02:57:04;16.80;99.90
16966;DHT22;8599;47.852;12.070;2023-05-23T02:59:31;16.80;99.90
16966;DHT22;8599;47.852;12.070;2023-05-23T03:01:57;16.70;99.90
16966;DHT22;8599;47.852;12.070;2023-05-23T03:04:24;16.70;99.90
16966;DHT22;8599;47.852;12.070;2023-05-23T03:06:52;16.80;99.90
16966;DHT22;8599;47.852;12.070;2023-05-23T03:09:19;16.70;99.90
16966;DHT22;8599;47.852;12.070;2023-05-23T03:11:48;16.70;99.90
16966;DHT22;8599;47.852;12.070;2023-05-23T03:14:15;16.70;99.90
16966;DHT22;8599;47.852;12.070;2023-05-23T03:16:42;16.70;99.90
16966;DHT22;8599;47.852;12.070;2023-05-23T03:19:09;16.70;99.90
16966;DHT22;8599;47.852;12.070;2023-05-23T03:21:36;16.70;99.90
16966;DHT22;8599;47.852;12.070;2023-05-23T03:24:03;16.80;99.90
16966;DHT22;8599;47.852;12.070;2023-05-23T03:26:30;16.80;99.90
16966;DHT22;8599;47.852;12.070;2023-05-23T03:28:58;16.80;99.90
16966;DHT22;8599;47.852;12.070;2023-05-23T03:31:25;16.90;99.90
16966;DHT22;8599;47.852;12.070;2023-05-23T03:33:52;16.90;99.90
16966;DHT22;8599;47.852;12.070;2023-05-23T03:36:19;16.80;99.90
16966;DHT22;8599;47.852;12.070;2023-05-23T03:38:46;16.80;99.90
16966;DHT22;8599;47.852;12.070;2023-05-23T03:41:13;16.80;99.90
16966;DHT22;8599;47.852;12.070;2023-05-23T03:43:39;16.90;99.90
16966;DHT22;8599;47.852;12.070;2023-05-23T03:46:08;16.80;99.90
16966;DHT22;8599;47.852;12.070;2023-05-23T03:48:34;16.80;99.90
16966;DHT22;8599;47.852;12.070;2023-05-23T03:51:01;16.90;99.90
16966;DHT22;8599;47.852;12.070;2023-05-23T03:53:28;16.90;99.90
16966;DHT22;8599;47.852;12.070;2023-05-23T03:55:55;16.90;99.90
16966;DHT22;8599;47.852;12.070;2023-05-23T03:58:22;16.90;99.90
16966;DHT22;8599;47.852;12.070;2023-05-23T04:00:48;16.90;99.90
16966;DHT22;8599;47.852;12.070;2023-05-23T04:03:19;16.90;99.90
16966;DHT22;8599;47.852;12.070;2023-05-23T04:05:46;16.80;99.90
16966;DHT22;8599;47.852;12.070;2023-05-23T04:08:12;16.80;99.90
16966;DHT22;8599;47.852;12.070;2023-05-23T04:10:40;16.80;99.90
16966;DHT22;8599;47.852;12.070;2023-05-23T04:13:06;16.80;99.90
16966;DHT22;8599;47.852;12.070;2023-05-23T04:15:34;16.80;99.90
16966;DHT22;8599;47.852;12.070;2023-05-23T04:18:01;16.80;99.90
16966;DHT22;8599;47.852;12.070;2023-05-23T04:20:29;16.80;99.90
16966;DHT22;8599;47.852;12.070;2023-05-23T04:22:56;16.80;99.90
16966;DHT22;8599;47.852;12.070;2023-05-23T04:25:22;16.80;99.90
16966;DHT22;8599;47.852;12.070;2023-05-23T04:27:50;16.80;99.90
16966;DHT22;8599;47.852;12.070;2023-05-23T04:30:19;16.80;99.90
16966;DHT22;8599;47.852;12.070;2023-05-23T04:32:46;16.80;99.90
16966;DHT22;8599;47.852;12.070;2023-05-23T04:35:13;16.80;99.90
16966;DHT22;8599;47.852;12.070;2023-05-23T04:37:41;16.90;99.90
16966;DHT22;8599;47.852;12.070;2023-05-23T04:40:10;16.90;99.90
16966;DHT22;8599;47.852;12.070;2023-05-23T04:42:38;16.90;99.90
16966;DHT22;8599;47.852;12.070;2023-05-23T04:45:07;16.90;99.90
16966;DHT22;8599;47.852;12.070;2023-05-23T04:47:35;16.80;99.90
16966;DHT22;8599;47.852;12.070;2023-05-23T04:50:02;16.80;99.90
16966;DHT22;8599;47.852;12.070;2023-05-23T04:52:30;16.80;99.90
16966;DHT22;8599;47.852;12.070;2023-05-23T04:54:59;16.70;99.90
16966;DHT22;8599;47.852;12.070;2023-05-23T04:57:26;16.70;99.90
16966;DHT22;8599;47.852;12.070;2023-05-23T04:59:55;16.70;99.90
16966;DHT22;8599;47.852;12.070;2023-05-23T05:02:22;16.70;99.90
16966;DHT22;8599;47.852;12.070;2023-05-23T05:04:49;16.80;99.90
16966;DHT22;8599;47.852;12.070;2023-05-23T05:07:16;16.80;99.90
16966;DHT22;8599;47.852;12.070;2023-05-23T05:09:42;16.80;99.90
16966;DHT22;8599;47.852;12.070;2023-05-23T05:12:11;16.80;99.90
16966;DHT22;8599;47.852;12.070;2023-05-23T05:14:37;16.90;99.90
16966;DHT22;8599;47.852;12.070;2023-05-23T05:17:04;16.90;99.90
16966;DHT22;8599;47.852;12.070;2023-05-23T05:19:31;17.00;99.90
16966;DHT22;8599;47.852;12.070;2023-05-23T05:21:58;17.10;99.90
16966;DHT22;8599;47.852;12.070;2023-05-23T05:24:25;17.20;99.90
16966;DHT22;8599;47.852;12.070;2023-05-23T05:26:53;17.40;99.90
16966;DHT22;8599;47.852;12.070;2023-05-23T05:29:22;17.40;99.90
16966;DHT22;8599;47.852;12.070;2023-05-23T05:31:48;17.40;99.90
16966;DHT22;8599;47.852;12.070;2023-05-23T05:34:16;17.50;99.90
16966;DHT22;8599;47.852;12.070;2023-05-23T05:36:43;17.60;99.90
16966;DHT22;8599;47.852;12.070;2023-05-23T05:39:12;17.60;99.90
16966;DHT22;8599;47.852;12.070;2023-05-23T05:41:40;17.60;99.90
16966;DHT22;8599;47.852;12.070;2023-05-23T05:44:07;17.70;99.90
16966;DHT22;8599;47.852;12.070;2023-05-23T05:46:35;17.70;99.90
16966;DHT22;8599;47.852;12.070;2023-05-23T05:49:02;17.70;99.90
16966;DHT22;8599;47.852;12.070;2023-05-23T05:51:29;17.80;99.90
16966;DHT22;8599;47.852;12.070;2023-05-23T05:53:56;17.80;99.90
16966;DHT22;8599;47.852;12.070;2023-05-23T05:56:23;18.00;99.90
16966;DHT22;8599;47.852;12.070;2023-05-23T05:58:50;18.10;99.90
16966;DHT22;8599;47.852;12.070;2023-05-23T06:01:17;18.20;99.90
16966;DHT22;8599;47.852;12.070;2023-05-23T06:03:45;18.30;99.90
16966;DHT22;8599;47.852;12.070;2023-05-23T06:06:12;18.30;99.90
16966;DHT22;8599;47.852;12.070;2023-05-23T06:08:40;18.20;99.90
16966;DHT22;8599;47.852;12.070;2023-05-23T06:11:07;18.30;99.90
16966;DHT22;8599;47.852;12.070;2023-05-23T06:13:34;18.20;99.90
16966;DHT22;8599;47.852;12.070;2023-05-23T06:16:01;18.20;99.90
16966;DHT22;8599;47.852;12.070;2023-05-23T06:18:28;18.30;99.90
16966;DHT22;8599;47.852;12.070;2023-05-23T06:20:56;18.30;99.90
16966;DHT22;8599;47.852;12.070;2023-05-23T06:23:23;18.40;99.90
16966;DHT22;8599;47.852;12.070;2023-05-23T06:25:49;18.40;99.90
16966;DHT22;8599;47.852;12.070;2023-05-23T06:28:16;18.50;99.90
16966;DHT22;8599;47.852;12.070;2023-05-23T06:30:43;18.70;99.90
16966;DHT22;8599;47.852;12.070;2023-05-23T06:33:10;18.80;99.90
16966;DHT22;8599;47.852;12.070;2023-05-23T06:35:37;18.80;99.90
16966;DHT22;8599;47.852;12.070;2023-05-23T06:38:05;19.00;99.90
16966;DHT22;8599;47.852;12.070;2023-05-23T06:40:32;19.00;99.90
16966;DHT22;8599;47.852;12.070;2023-05-23T06:42:59;18.90;99.90
16966;DHT22;8599;47.852;12.070;2023-05-23T06:45:26;19.10;99.90
16966;DHT22;8599;47.852;12.070;2023-05-23T06:47:52;18.90;99.90
16966;DHT22;8599;47.852;12.070;2023-05-23T06:50:19;19.00;99.90
16966;DHT22;8599;47.852;12.070;2023-05-23T06:52:46;18.70;99.90
16966;DHT22;8599;47.852;12.070;2023-05-23T06:55:16;18.70;99.90
16966;DHT22;8599;47.852;12.070;2023-05-23T06:57:44;18.60;99.90
16966;DHT22;8599;47.852;12.070;2023-05-23T07:00:12;18.50;99.90
16966;DHT22;8599;47.852;12.070;2023-05-23T07:02:39;18.50;99.90
16966;DHT22;8599;47.852;12.070;2023-05-23T07:05:06;18.40;99.90
16966;DHT22;8599;47.852;12.070;2023-05-23T07:07:33;18.40;99.90
16966;DHT22;8599;47.852;12.070;2023-05-23T07:10:00;18.50;99.90
16966;DHT22;8599;47.852;12.070;2023-05-23T07:12:28;18.40;99.90
16966;DHT22;8599;47.852;12.070;2023-05-23T07:14:55;18.40;99.90
16966;DHT22;8599;47.852;12.070;2023-05-23T07:17:22;18.30;99.90
16966;DHT22;8599;47.852;12.070;2023-05-23T07:19:48;18.30;99.90
16966;DHT22;8599;47.852;12.070;2023-05-23T07:22:15;18.20;99.90
16966;DHT22;8599;47.852;12.070;2023-05-23T07:24:42;18.20;99.90
16966;DHT22;8599;47.852;12.070;2023-05-23T07:27:09;18.20;99.90
16966;DHT22;8599;47.852;12.070;2023-05-23T07:29:37;18.20;99.90
16966;DHT22;8599;47.852;12.070;2023-05-23T07:32:04;18.20;99.90
16966;DHT22;8599;47.852;12.070;2023-05-23T07:34:31;18.10;99.90
16966;DHT22;8599;47.852;12.070;2023-05-23T07:36:58;18.10;99.90
16966;DHT22;8599;47.852;12.070;2023-05-23T07:39:25;18.20;99.90
16966;DHT22;8599;47.852;12.070;2023-05-23T07:41:52;18.30;99.90
16966;DHT22;8599;47.852;12.070;2023-05-23T07:44:19;18.50;99.90
16966;DHT22;8599;47.852;12.070;2023-05-23T07:46:47;18.70;99.90
16966;DHT22;8599;47.852;12.070;2023-05-23T07:49:14;19.10;99.90
16966;DHT22;8599;47.852;12.070;2023-05-23T07:51:41;19.40;99.90
16966;DHT22;8599;47.852;12.070;2023-05-23T07:54:08;19.60;99.90
16966;DHT22;8599;47.852;12.070;2023-05-23T07:56:35;19.70;99.90
16966;DHT22;8599;47.852;12.070;2023-05-23T07:59:03;19.80;99.90
16966;DHT22;8599;47.852;12.070;2023-05-23T08:01:30;20.00;99.90
16966;DHT22;8599;47.852;12.070;2023-05-23T08:03:58;20.20;99.90
16966;DHT22;8599;47.852;12.070;2023-05-23T08:06:25;20.30;99.90
16966;DHT22;8599;47.852;12.070;2023-05-23T08:08:52;20.40;99.90
16966;DHT22;8599;47.852;12.070;2023-05-23T08:11:19;20.50;99.90
16966;DHT22;8599;47.852;12.070;2023-05-23T08:13:46;20.50;99.90
16966;DHT22;8599;47.852;12.070;2023-05-23T08:16:12;20.40;99.90
16966;DHT22;8599;47.852;12.070;2023-05-23T08:18:39;20.40;99.90
16966;DHT22;8599;47.852;12.070;2023-05-23T08:21:07;20.40;99.90
16966;DHT22;8599;47.852;12.070;2023-05-23T08:23:37;20.50;99.90
16966;DHT22;8599;47.852;12.070;2023-05-23T08:26:04;20.50;99.90
16966;DHT22;8599;47.852;12.070;2023-05-23T08:28:32;20.50;99.90
16966;DHT22;8599;47.852;12.070;2023-05-23T08:30:59;20.50;99.90
16966;DHT22;8599;47.852;12.070;2023-05-23T08:33:26;20.60;99.90
16966;DHT22;8599;47.852;12.070;2023-05-23T08:35:53;20.50;99.90
16966;DHT22;8599;47.852;12.070;2023-05-23T08:38:21;20.30;99.90
16966;DHT22;8599;47.852;12.070;2023-05-23T08:40:49;20.40;99.90
16966;DHT22;8599;47.852;12.070;2023-05-23T08:43:16;20.40;99.90
16966;DHT22;8599;47.852;12.070;2023-05-23T08:45:44;20.30;99.90
16966;DHT22;8599;47.852;12.070;2023-05-23T08:48:12;20.10;99.90
16966;DHT22;8599;47.852;12.070;2023-05-23T08:50:42;20.10;99.90
16966;DHT22;8599;47.852;12.070;2023-05-23T08:53:13;20.00;99.90
16966;DHT22;8599;47.852;12.070;2023-05-23T08:55:46;19.80;99.90
16966;DHT22;8599;47.852;12.070;2023-05-23T08:58:13;19.70;99.90
16966;DHT22;8599;47.852;12.070;2023-05-23T09:00:41;19.50;99.90
16966;DHT22;8599;47.852;12.070;2023-05-23T09:03:08;19.30;99.90
16966;DHT22;8599;47.852;12.070;2023-05-23T09:05:36;19.10;99.90
16966;DHT22;8599;47.852;12.070;2023-05-23T09:08:02;18.60;99.90
16966;DHT22;8599;47.852;12.070;2023-05-23T09:10:29;18.30;99.90
16966;DHT22;8599;47.852;12.070;2023-05-23T09:12:57;18.00;99.90
16966;DHT22;8599;47.852;12.070;2023-05-23T09:15:24;17.90;99.90
16966;DHT22;8599;47.852;12.070;2023-05-23T09:17:51;17.90;99.90
16966;DHT22;8599;47.852;12.070;2023-05-23T09:20:19;17.90;99.90
16966;DHT22;8599;47.852;12.070;2023-05-23T09:22:47;17.90;99.90
16966;DHT22;8599;47.852;12.070;2023-05-23T09:25:14;17.90;99.90
16966;DHT22;8599;47.852;12.070;2023-05-23T09:27:41;17.80;99.90
16966;DHT22;8599;47.852;12.070;2023-05-23T09:30:12;18.00;99.90
16966;DHT22;8599;47.852;12.070;2023-05-23T09:32:39;17.90;99.90
16966;DHT22;8599;47.852;12.070;2023-05-23T09:35:07;17.80;99.90
16966;DHT22;8599;47.852;12.070;2023-05-23T09:37:38;17.80;99.90
16966;DHT22;8599;47.852;12.070;2023-05-23T09:40:06;17.70;99.90
16966;DHT22;8599;47.852;12.070;2023-05-23T09:42:35;17.70;99.90
16966;DHT22;8599;47.852;12.070;2023-05-23T09:45:02;17.80;99.90
16966;DHT22;8599;47.852;12.070;2023-05-23T09:47:30;18.00;99.90
16966;DHT22;8599;47.852;12.070;2023-05-23T09:49:57;18.00;99.90
16966;DHT22;8599;47.852;12.070;2023-05-23T09:52:25;18.10;99.90
16966;DHT22;8599;47.852;12.070;2023-05-23T09:54:57;18.00;99.90
16966;DHT22;8599;47.852;12.070;2023-05-23T09:57:32;18.00;99.90
16966;DHT22;8599;47.852;12.070;2023-05-23T10:00:09;18.00;99.90
16966;DHT22;8599;47.852;12.070;2023-05-23T10:02:59;18.10;99.90
16966;DHT22;8599;47.852;12.070;2023-05-23T10:05:46;17.90;99.90
16966;DHT22;8599;47.852;12.070;2023-05-23T10:08:23;17.90;99.90
16966;DHT22;8599;47.852;12.070;2023-05-23T10:12:09;17.80;99.90
16966;DHT22;8599;47.852;12.070;2023-05-23T10:14:39;17.80;99.90
16966;DHT22;8599;47.852;12.070;2023-05-23T10:17:20;17.90;99.90
16966;DHT22;8599;47.852;12.070;2023-05-23T10:20:04;17.90;99.90
16966;DHT22;8599;47.852;12.070;2023-05-23T10:22:37;18.10;99.90
16966;DHT22;8599;47.852;12.070;2023-05-23T10:25:27;18.20;99.90
16966;DHT22;8599;47.852;12.070;2023-05-23T10:28:00;18.30;99.90
16966;DHT22;8599;47.852;12.070;2023-05-23T10:30:28;18.30;99.90
16966;DHT22;8599;47.852;12.070;2023-05-23T10:32:55;18.20;99.90
16966;DHT22;8599;47.852;12.070;2023-05-23T10:35:31;18.20;99.90
16966;DHT22;8599;47.852;12.070;2023-05-23T10:38:09;18.20;99.90
16966;DHT22;8599;47.852;12.070;2023-05-23T10:40:48;18.30;99.90
16966;DHT22;8599;47.852;12.070;2023-05-23T10:43:22;18.30;99.90
16966;DHT22;8599;47.852;12.070;2023-05-23T10:45:51;18.10;99.90
16966;DHT22;8599;47.852;12.070;2023-05-23T10:48:21;17.90;99.90
16966;DHT22;8599;47.852;12.070;2023-05-23T10:51:08;17.90;99.90
16966;DHT22;8599;47.852;12.070;2023-05-23T10:53:36;17.90;99.90
16966;DHT22;8599;47.852;12.070;2023-05-23T10:56:04;17.80;99.90
16966;DHT22;8599;47.852;12.070;2023-05-23T10:58:32;17.80;99.90
16966;DHT22;8599;47.852;12.070;2023-05-23T11:01:01;17.70;99.90
16966;DHT22;8599;47.852;12.070;2023-05-23T11:03:34;17.70;99.90
16966;DHT22;8599;47.852;12.070;2023-05-23T11:06:03;17.80;99.90
16966;DHT22;8599;47.852;12.070;2023-05-23T11:08:38;17.70;99.90
16966;DHT22;8599;47.852;12.070;2023-05-23T11:11:07;17.70;99.90
16966;DHT22;8599;47.852;12.070;2023-05-23T11:13:53;17.70;99.90
16966;DHT22;8599;47.852;12.070;2023-05-23T11:16:28;17.60;99.90
16966;DHT22;8599;47.852;12.070;2023-05-23T11:19:20;17.40;99.90
16966;DHT22;8599;47.852;12.070;2023-05-23T11:21:52;17.20;99.90
16966;DHT22;8599;47.852;12.070;2023-05-23T11:24:20;17.10;99.90
16966;DHT22;8599;47.852;12.070;2023-05-23T11:26:54;17.00;99.90
16966;DHT22;8599;47.852;12.070;2023-05-23T11:29:25;17.00;99.90
16966;DHT22;8599;47.852;12.070;2023-05-23T11:31:53;17.00;99.90
16966;DHT22;8599;47.852;12.070;2023-05-23T11:34:20;17.00;99.90
16966;DHT22;8599;47.852;12.070;2023-05-23T11:36:50;17.00;99.90
16966;DHT22;8599;47.852;12.070;2023-05-23T11:39:18;17.10;99.90
16966;DHT22;8599;47.852;12.070;2023-05-23T11:41:53;17.10;99.90
16966;DHT22;8599;47.852;12.070;2023-05-23T11:44:23;17.00;99.90
16966;DHT22;8599;47.852;12.070;2023-05-23T11:46:58;16.90;99.90
16966;DHT22;8599;47.852;12.070;2023-05-23T11:49:27;16.80;99.90
16966;DHT22;8599;47.852;12.070;2023-05-23T11:51:54;16.90;99.90
16966;DHT22;8599;47.852;12.070;2023-05-23T11:54:22;16.90;99.90
16966;DHT22;8599;47.852;12.070;2023-05-23T11:56:50;16.80;99.90
16966;DHT22;8599;47.852;12.070;2023-05-23T11:59:18;16.70;99.90
16966;DHT22;8599;47.852;12.070;2023-05-23T12:01:44;16.50;99.90
16966;DHT22;8599;47.852;12.070;2023-05-23T12:04:11;16.40;99.90
16966;DHT22;8599;47.852;12.070;2023-05-23T12:06:39;16.50;99.90
16966;DHT22;8599;47.852;12.070;2023-05-23T12:09:06;16.30;99.90
16966;DHT22;8599;47.852;12.070;2023-05-23T12:11:34;16.30;99.90
16966;DHT22;8599;47.852;12.070;2023-05-23T12:14:02;16.20;99.90
16966;DHT22;8599;47.852;12.070;2023-05-23T12:16:31;16.10;99.90
16966;DHT22;8599;47.852;12.070;2023-05-23T12:18:58;16.10;99.90
16966;DHT22;8599;47.852;12.070;2023-05-23T12:21:26;16.10;99.90
16966;DHT22;8599;47.852;12.070;2023-05-23T12:24:14;16.10;99.90
16966;DHT22;8599;47.852;12.070;2023-05-23T12:26:49;16.20;99.90
16966;DHT22;8599;47.852;12.070;2023-05-23T12:29:27;16.20;99.90
16966;DHT22;8599;47.852;12.070;2023-05-23T12:31:54;16.30;99.90
16966;DHT22;8599;47.852;12.070;2023-05-23T12:34:23;16.40;99.90
16966;DHT22;8599;47.852;12.070;2023-05-23T12:36:54;16.50;99.90
16966;DHT22;8599;47.852;12.070;2023-05-23T12:39:23;16.60;99.90
16966;DHT22;8599;47.852;12.070;2023-05-23T12:41:51;16.80;99.90
16966;DHT22;8599;47.852;12.070;2023-05-23T12:44:21;16.80;99.90
16966;DHT22;8599;47.852;12.070;2023-05-23T12:46:48;16.80;99.90
16966;DHT22;8599;47.852;12.070;2023-05-23T12:49:15;16.90;99.90
16966;DHT22;8599;47.852;12.070;2023-05-23T12:51:42;16.90;99.90
16966;DHT22;8599;47.852;12.070;2023-05-23T12:54:09;17.00;99.90
16966;DHT22;8599;47.852;12.070;2023-05-23T12:56:35;17.10;99.90
16966;DHT22;8599;47.852;12.070;2023-05-23T12:59:02;17.40;99.90
16966;DHT22;8599;47.852;12.070;2023-05-23T13:01:30;17.40;99.90
16966;DHT22;8599;47.852;12.070;2023-05-23T13:03:58;17.50;99.90
16966;DHT22;8599;47.852;12.070;2023-05-23T13:06:26;17.50;99.90
16966;DHT22;8599;47.852;12.070;2023-05-23T13:08:53;17.50;99.90
16966;DHT22;8599;47.852;12.070;2023-05-23T13:11:20;17.60;99.90
16966;DHT22;8599;47.852;12.070;2023-05-23T13:13:47;17.60;99.90
16966;DHT22;8599;47.852;12.070;2023-05-23T13:16:15;17.60;99.90
16966;DHT22;8599;47.852;12.070;2023-05-23T13:18:43;17.70;99.90
16966;DHT22;8599;47.852;12.070;2023-05-23T13:21:10;17.70;99.90
16966;DHT22;8599;47.852;12.070;2023-05-23T13:23:37;17.80;99.90
16966;DHT22;8599;47.852;12.070;2023-05-23T13:26:04;17.70;99.90
16966;DHT22;8599;47.852;12.070;2023-05-23T13:28:32;17.80;99.90
16966;DHT22;8599;47.852;12.070;2023-05-23T13:30:59;17.80;99.90
16966;DHT22;8599;47.852;12.070;2023-05-23T13:33:27;17.90;99.90
16966;DHT22;8599;47.852;12.070;2023-05-23T13:35:56;17.80;99.90
16966;DHT22;8599;47.852;12.070;2023-05-23T13:38:23;17.90;99.90
16966;DHT22;8599;47.852;12.070;2023-05-23T13:40:52;18.00;99.90
16966;DHT22;8599;47.852;12.070;2023-05-23T13:43:19;18.20;99.90
16966;DHT22;8599;47.852;12.070;2023-05-23T13:45:46;18.30;99.90
16966;DHT22;8599;47.852;12.070;2023-05-23T13:48:13;18.30;99.90
16966;DHT22;8599;47.852;12.070;2023-05-23T13:50:41;18.30;99.90
16966;DHT22;8599;47.852;12.070;2023-05-23T13:53:09;18.30;99.90
16966;DHT22;8599;47.852;12.070;2023-05-23T13:55:41;18.30;99.90
16966;DHT22;8599;47.852;12.070;2023-05-23T13:58:08;18.40;99.90
16966;DHT22;8599;47.852;12.070;2023-05-23T14:00:35;18.30;99.90
16966;DHT22;8599;47.852;12.070;2023-05-23T14:03:02;18.20;99.90
16966;DHT22;8599;47.852;12.070;2023-05-23T14:05:29;18.10;99.90
16966;DHT22;8599;47.852;12.070;2023-05-23T14:07:56;18.30;99.90
16966;DHT22;8599;47.852;12.070;2023-05-23T14:10:24;18.20;99.90
16966;DHT22;8599;47.852;12.070;2023-05-23T14:12:51;18.20;99.90
16966;DHT22;8599;47.852;12.070;2023-05-23T14:15:17;18.10;99.90
16966;DHT22;8599;47.852;12.070;2023-05-23T14:17:44;18.00;99.90
16966;DHT22;8599;47.852;12.070;2023-05-23T14:20:12;17.90;99.90
16966;DHT22;8599;47.852;12.070;2023-05-23T14:22:38;17.90;99.90
16966;DHT22;8599;47.852;12.070;2023-05-23T14:25:05;17.80;99.90
16966;DHT22;8599;47.852;12.070;2023-05-23T14:27:34;17.70;99.90
16966;DHT22;8599;47.852;12.070;2023-05-23T14:30:03;17.70;99.90
16966;DHT22;8599;47.852;12.070;2023-05-23T14:32:30;17.60;99.90
16966;DHT22;8599;47.852;12.070;2023-05-23T14:35:03;17.70;99.90
16966;DHT22;8599;47.852;12.070;2023-05-23T14:37:30;17.70;99.90
16966;DHT22;8599;47.852;12.070;2023-05-23T14:39:57;17.50;99.90
16966;DHT22;8599;47.852;12.070;2023-05-23T14:42:23;17.50;99.90
16966;DHT22;8599;47.852;12.070;2023-05-23T14:44:52;17.50;99.90
16966;DHT22;8599;47.852;12.070;2023-05-23T14:47:19;17.40;99.90
16966;DHT22;8599;47.852;12.070;2023-05-23T14:49:47;17.30;99.90
16966;DHT22;8599;47.852;12.070;2023-05-23T14:52:15;17.20;99.90
16966;DHT22;8599;47.852;12.070;2023-05-23T14:54:42;17.30;99.90
16966;DHT22;8599;47.852;12.070;2023-05-23T14:57:09;17.30;99.90
16966;DHT22;8599;47.852;12.070;2023-05-23T14:59:36;17.20;99.90
16966;DHT22;8599;47.852;12.070;2023-05-23T15:02:04;17.30;99.90
16966;DHT22;8599;47.852;12.070;2023-05-23T15:04:31;17.20;99.90
16966;DHT22;8599;47.852;12.070;2023-05-23T15:06:58;17.10;99.90
16966;DHT22;8599;47.852;12.070;2023-05-23T15:09:25;17.00;99.90
16966;DHT22;8599;47.852;12.070;2023-05-23T15:11:53;17.00;99.90
16966;DHT22;8599;47.852;12.070;2023-05-23T15:14:19;17.00;99.90
16966;DHT22;8599;47.852;12.070;2023-05-23T15:16:47;17.00;99.90
16966;DHT22;8599;47.852;12.070;2023-05-23T15:19:16;17.10;99.90
16966;DHT22;8599;47.852;12.070;2023-05-23T15:21:43;17.00;99.90
16966;DHT22;8599;47.852;12.070;2023-05-23T15:24:09;17.00;99.90
16966;DHT22;8599;47.852;12.070;2023-05-23T15:26:36;17.10;99.90
16966;DHT22;8599;47.852;12.070;2023-05-23T15:29:03;17.10;99.90
16966;DHT22;8599;47.852;12.070;2023-05-23T15:31:30;17.10;99.90
16966;DHT22;8599;47.852;12.070;2023-05-23T15:33:57;17.10;99.90
16966;DHT22;8599;47.852;12.070;2023-05-23T15:36:25;17.10;99.90
16966;DHT22;8599;47.852;12.070;2023-05-23T15:38:51;17.10;99.90